sensor_id;sensor_type;location;lat;lon;timestamp;P1;durP1;ratioP1;P2;durP2;ratioP2
62058;SDS011;48017;51.064;7.014;2022-10-16T00:01:13;3.95;;;2.17;;
62058;SDS011;48017;51.064;7.014;2022-10-16T00:03:40;2.95;;;2.15;;
62058;SDS011;48017;51.064;7.014;2022-10-16T00:06:07;4.10;;;2.25;;
62058;SDS011;48017;51.064;7.014;2022-10-16T00:08:33;3.70;;;2.30;;
62058;SDS011;48017;51.064;7.014;2022-10-16T00:11:00;4.22;;;2.10;;
62058;SDS011;48017;51.064;7.014;2022-10-16T00:13:26;3.92;;;2.03;;
62058;SDS011;48017;51.064;7.014;2022-10-16T00:15:54;2.85;;;1.80;;
62058;SDS011;48017;51.064;7.014;2022-10-16T00:18:21;5.57;;;2.00;;
62058;SDS011;48017;51.064;7.014;2022-10-16T00:20:46;2.58;;;1.75;;
62058;SDS011;48017;51.064;7.014;2022-10-16T00:23:12;3.20;;;1.73;;
62058;SDS011;48017;51.064;7.014;2022-10-16T00:25:37;3.88;;;1.95;;
62058;SDS011;48017;51.064;7.014;2022-10-16T00:28:02;3.00;;;1.88;;
62058;SDS011;48017;51.064;7.014;2022-10-16T00:30:28;3.15;;;1.90;;
62058;SDS011;48017;51.064;7.014;2022-10-16T00:32:54;3.40;;;2.00;;
62058;SDS011;48017;51.064;7.014;2022-10-16T00:35:19;2.65;;;1.80;;
62058;SDS011;48017;51.064;7.014;2022-10-16T00:37:45;3.67;;;1.92;;
62058;SDS011;48017;51.064;7.014;2022-10-16T00:40:10;2.63;;;1.77;;
62058;SDS011;48017;51.064;7.014;2022-10-16T00:42:36;2.95;;;1.75;;
62058;SDS011;48017;51.064;7.014;2022-10-16T00:45:02;2.88;;;1.90;;
62058;SDS011;48017;51.064;7.014;2022-10-16T00:47:32;5.40;;;1.83;;
62058;SDS011;48017;51.064;7.014;2022-10-16T00:52:31;2.33;;;1.55;;
62058;SDS011;48017;51.064;7.014;2022-10-16T00:54:56;3.85;;;2.05;;
62058;SDS011;48017;51.064;7.014;2022-10-16T00:57:23;3.92;;;1.88;;
62058;SDS011;48017;51.064;7.014;2022-10-16T00:59:50;3.85;;;2.03;;
62058;SDS011;48017;51.064;7.014;2022-10-16T01:02:16;3.58;;;1.92;;
62058;SDS011;48017;51.064;7.014;2022-10-16T01:04:51;6.95;;;2.10;;
62058;SDS011;48017;51.064;7.014;2022-10-16T01:12:41;3.75;;;2.10;;
62058;SDS011;48017;51.064;7.014;2022-10-16T01:15:26;3.10;;;1.92;;
62058;SDS011;48017;51.064;7.014;2022-10-16T01:18:12;6.90;;;1.90;;
62058;SDS011;48017;51.064;7.014;2022-10-16T01:31:50;3.10;;;1.70;;
62058;SDS011;48017;51.064;7.014;2022-10-16T01:34:23;3.78;;;1.90;;
62058;SDS011;48017;51.064;7.014;2022-10-16T01:36:59;2.78;;;1.48;;
62058;SDS011;48017;51.064;7.014;2022-10-16T01:39:30;3.70;;;1.60;;
62058;SDS011;48017;51.064;7.014;2022-10-16T01:42:11;3.97;;;1.58;;
62058;SDS011;48017;51.064;7.014;2022-10-16T01:44:42;1.73;;;1.20;;
62058;SDS011;48017;51.064;7.014;2022-10-16T01:47:10;3.15;;;1.58;;
62058;SDS011;48017;51.064;7.014;2022-10-16T01:49:39;3.20;;;1.23;;
62058;SDS011;48017;51.064;7.014;2022-10-16T01:52:07;3.00;;;1.40;;
62058;SDS011;48017;51.064;7.014;2022-10-16T01:54:37;2.30;;;1.52;;
62058;SDS011;48017;51.064;7.014;2022-10-16T01:57:05;2.35;;;1.40;;
62058;SDS011;48017;51.064;7.014;2022-10-16T01:59:33;2.45;;;1.52;;
62058;SDS011;48017;51.064;7.014;2022-10-16T02:02:04;2.10;;;1.25;;
62058;SDS011;48017;51.064;7.014;2022-10-16T02:04:34;2.38;;;1.30;;
62058;SDS011;48017;51.064;7.014;2022-10-16T02:07:03;2.30;;;1.10;;
62058;SDS011;48017;51.064;7.014;2022-10-16T02:09:29;1.90;;;1.13;;
62058;SDS011;48017;51.064;7.014;2022-10-16T02:11:57;2.30;;;1.35;;
62058;SDS011;48017;51.064;7.014;2022-10-16T02:14:27;1.83;;;1.10;;
62058;SDS011;48017;51.064;7.014;2022-10-16T02:16:53;2.03;;;1.23;;
62058;SDS011;48017;51.064;7.014;2022-10-16T02:19:19;1.85;;;1.10;;
62058;SDS011;48017;51.064;7.014;2022-10-16T02:24:27;2.13;;;1.38;;
62058;SDS011;48017;51.064;7.014;2022-10-16T02:29:30;2.38;;;1.20;;
62058;SDS011;48017;51.064;7.014;2022-10-16T02:32:00;2.45;;;1.23;;
62058;SDS011;48017;51.064;7.014;2022-10-16T02:34:27;4.07;;;1.30;;
62058;SDS011;48017;51.064;7.014;2022-10-16T02:36:56;1.60;;;1.00;;
62058;SDS011;48017;51.064;7.014;2022-10-16T02:39:24;1.40;;;1.00;;
62058;SDS011;48017;51.064;7.014;2022-10-16T02:41:52;1.77;;;1.02;;
62058;SDS011;48017;51.064;7.014;2022-10-16T02:44:17;2.50;;;1.20;;
62058;SDS011;48017;51.064;7.014;2022-10-16T02:46:43;2.28;;;1.00;;
62058;SDS011;48017;51.064;7.014;2022-10-16T02:49:08;2.17;;;1.10;;
62058;SDS011;48017;51.064;7.014;2022-10-16T02:51:33;1.73;;;0.88;;
62058;SDS011;48017;51.064;7.014;2022-10-16T02:53:59;1.65;;;1.00;;
62058;SDS011;48017;51.064;7.014;2022-10-16T02:56:24;1.70;;;1.08;;
62058;SDS011;48017;51.064;7.014;2022-10-16T02:58:50;1.13;;;0.80;;
62058;SDS011;48017;51.064;7.014;2022-10-16T03:01:15;1.85;;;0.90;;
62058;SDS011;48017;51.064;7.014;2022-10-16T03:03:41;1.67;;;1.13;;
62058;SDS011;48017;51.064;7.014;2022-10-16T03:06:07;1.88;;;1.10;;
62058;SDS011;48017;51.064;7.014;2022-10-16T03:08:32;2.22;;;1.20;;
62058;SDS011;48017;51.064;7.014;2022-10-16T03:10:58;2.00;;;1.15;;
62058;SDS011;48017;51.064;7.014;2022-10-16T03:13:23;2.58;;;1.00;;
62058;SDS011;48017;51.064;7.014;2022-10-16T03:15:48;1.77;;;1.05;;
62058;SDS011;48017;51.064;7.014;2022-10-16T03:18:14;1.52;;;0.95;;
62058;SDS011;48017;51.064;7.014;2022-10-16T03:20:40;4.07;;;1.23;;
62058;SDS011;48017;51.064;7.014;2022-10-16T03:23:05;1.95;;;1.13;;
62058;SDS011;48017;51.064;7.014;2022-10-16T03:25:33;3.58;;;1.33;;
62058;SDS011;48017;51.064;7.014;2022-10-16T03:27:58;2.63;;;0.90;;
62058;SDS011;48017;51.064;7.014;2022-10-16T03:30:23;2.15;;;1.15;;
62058;SDS011;48017;51.064;7.014;2022-10-16T03:32:49;1.80;;;1.10;;
62058;SDS011;48017;51.064;7.014;2022-10-16T03:35:18;2.03;;;0.90;;
62058;SDS011;48017;51.064;7.014;2022-10-16T03:37:44;1.90;;;1.10;;
62058;SDS011;48017;51.064;7.014;2022-10-16T03:40:09;1.70;;;1.08;;
62058;SDS011;48017;51.064;7.014;2022-10-16T03:42:35;5.07;;;1.10;;
62058;SDS011;48017;51.064;7.014;2022-10-16T03:45:00;2.10;;;1.10;;
62058;SDS011;48017;51.064;7.014;2022-10-16T03:47:26;1.63;;;1.00;;
62058;SDS011;48017;51.064;7.014;2022-10-16T03:49:51;2.08;;;1.20;;
62058;SDS011;48017;51.064;7.014;2022-10-16T03:52:17;2.78;;;1.20;;
62058;SDS011;48017;51.064;7.014;2022-10-16T03:54:42;2.28;;;1.35;;
62058;SDS011;48017;51.064;7.014;2022-10-16T03:57:08;5.03;;;1.33;;
62058;SDS011;48017;51.064;7.014;2022-10-16T03:59:33;2.35;;;1.27;;
62058;SDS011;48017;51.064;7.014;2022-10-16T04:01:59;2.28;;;1.30;;
62058;SDS011;48017;51.064;7.014;2022-10-16T04:04:24;2.85;;;1.30;;
62058;SDS011;48017;51.064;7.014;2022-10-16T04:06:50;1.77;;;1.20;;
62058;SDS011;48017;51.064;7.014;2022-10-16T04:09:16;1.90;;;1.20;;
62058;SDS011;48017;51.064;7.014;2022-10-16T04:11:41;2.47;;;1.08;;
62058;SDS011;48017;51.064;7.014;2022-10-16T04:14:06;1.98;;;1.27;;
62058;SDS011;48017;51.064;7.014;2022-10-16T04:16:32;4.03;;;1.30;;
62058;SDS011;48017;51.064;7.014;2022-10-16T04:18:57;2.20;;;1.35;;
62058;SDS011;48017;51.064;7.014;2022-10-16T04:21:22;5.13;;;1.20;;
62058;SDS011;48017;51.064;7.014;2022-10-16T04:23:48;3.08;;;1.40;;
62058;SDS011;48017;51.064;7.014;2022-10-16T04:26:14;2.55;;;1.40;;
62058;SDS011;48017;51.064;7.014;2022-10-16T04:28:39;1.75;;;1.17;;
62058;SDS011;48017;51.064;7.014;2022-10-16T04:31:05;1.80;;;1.20;;
62058;SDS011;48017;51.064;7.014;2022-10-16T04:33:31;2.20;;;1.70;;
62058;SDS011;48017;51.064;7.014;2022-10-16T04:36:00;1.70;;;1.20;;
62058;SDS011;48017;51.064;7.014;2022-10-16T04:38:26;2.47;;;1.45;;
62058;SDS011;48017;51.064;7.014;2022-10-16T04:40:52;1.90;;;1.27;;
62058;SDS011;48017;51.064;7.014;2022-10-16T04:43:18;1.65;;;1.10;;
62058;SDS011;48017;51.064;7.014;2022-10-16T04:45:43;2.72;;;1.23;;
62058;SDS011;48017;51.064;7.014;2022-10-16T04:48:09;1.58;;;1.02;;
62058;SDS011;48017;51.064;7.014;2022-10-16T04:50:34;1.70;;;1.00;;
62058;SDS011;48017;51.064;7.014;2022-10-16T04:53:00;2.05;;;1.20;;
62058;SDS011;48017;51.064;7.014;2022-10-16T04:55:25;1.42;;;1.00;;
62058;SDS011;48017;51.064;7.014;2022-10-16T04:57:50;2.15;;;1.13;;
62058;SDS011;48017;51.064;7.014;2022-10-16T05:00:16;1.88;;;1.10;;
62058;SDS011;48017;51.064;7.014;2022-10-16T05:02:41;1.60;;;1.10;;
62058;SDS011;48017;51.064;7.014;2022-10-16T05:05:06;1.65;;;1.00;;
62058;SDS011;48017;51.064;7.014;2022-10-16T05:07:32;2.10;;;1.23;;
62058;SDS011;48017;51.064;7.014;2022-10-16T05:09:57;2.30;;;1.02;;
62058;SDS011;48017;51.064;7.014;2022-10-16T05:12:23;2.95;;;1.35;;
62058;SDS011;48017;51.064;7.014;2022-10-16T05:14:48;1.50;;;1.02;;
62058;SDS011;48017;51.064;7.014;2022-10-16T05:17:13;1.90;;;1.13;;
62058;SDS011;48017;51.064;7.014;2022-10-16T05:19:39;1.63;;;1.10;;
62058;SDS011;48017;51.064;7.014;2022-10-16T05:22:04;1.52;;;1.02;;
62058;SDS011;48017;51.064;7.014;2022-10-16T05:24:30;1.90;;;1.20;;
62058;SDS011;48017;51.064;7.014;2022-10-16T05:26:55;1.90;;;1.10;;
62058;SDS011;48017;51.064;7.014;2022-10-16T05:29:20;1.73;;;1.10;;
62058;SDS011;48017;51.064;7.014;2022-10-16T05:31:46;3.03;;;1.20;;
62058;SDS011;48017;51.064;7.014;2022-10-16T05:34:11;5.25;;;1.23;;
62058;SDS011;48017;51.064;7.014;2022-10-16T05:36:37;2.88;;;1.30;;
62058;SDS011;48017;51.064;7.014;2022-10-16T05:39:02;2.30;;;1.10;;
62058;SDS011;48017;51.064;7.014;2022-10-16T05:41:27;2.00;;;0.90;;
62058;SDS011;48017;51.064;7.014;2022-10-16T05:43:53;1.75;;;1.00;;
62058;SDS011;48017;51.064;7.014;2022-10-16T05:46:18;1.25;;;0.90;;
62058;SDS011;48017;51.064;7.014;2022-10-16T05:48:44;2.67;;;1.15;;
62058;SDS011;48017;51.064;7.014;2022-10-16T05:51:11;2.17;;;1.00;;
62058;SDS011;48017;51.064;7.014;2022-10-16T05:53:38;1.77;;;1.10;;
62058;SDS011;48017;51.064;7.014;2022-10-16T05:56:05;2.05;;;1.20;;
62058;SDS011;48017;51.064;7.014;2022-10-16T05:58:32;2.35;;;1.02;;
62058;SDS011;48017;51.064;7.014;2022-10-16T06:01:04;1.50;;;1.00;;
62058;SDS011;48017;51.064;7.014;2022-10-16T06:03:31;2.60;;;1.35;;
62058;SDS011;48017;51.064;7.014;2022-10-16T06:05:57;1.77;;;1.10;;
62058;SDS011;48017;51.064;7.014;2022-10-16T06:08:22;2.70;;;1.30;;
62058;SDS011;48017;51.064;7.014;2022-10-16T06:10:48;4.40;;;1.00;;
62058;SDS011;48017;51.064;7.014;2022-10-16T06:13:14;1.85;;;1.10;;
62058;SDS011;48017;51.064;7.014;2022-10-16T06:15:41;2.45;;;1.30;;
62058;SDS011;48017;51.064;7.014;2022-10-16T06:18:07;2.80;;;1.20;;
62058;SDS011;48017;51.064;7.014;2022-10-16T06:20:33;1.70;;;0.98;;
62058;SDS011;48017;51.064;7.014;2022-10-16T06:22:59;1.88;;;1.10;;
62058;SDS011;48017;51.064;7.014;2022-10-16T06:25:24;2.10;;;1.20;;
62058;SDS011;48017;51.064;7.014;2022-10-16T06:27:50;2.13;;;1.63;;
62058;SDS011;48017;51.064;7.014;2022-10-16T06:30:15;1.92;;;1.10;;
62058;SDS011;48017;51.064;7.014;2022-10-16T06:32:40;1.65;;;0.95;;
62058;SDS011;48017;51.064;7.014;2022-10-16T06:35:06;1.52;;;0.95;;
62058;SDS011;48017;51.064;7.014;2022-10-16T06:37:31;3.20;;;1.20;;
62058;SDS011;48017;51.064;7.014;2022-10-16T06:39:57;1.63;;;1.00;;
62058;SDS011;48017;51.064;7.014;2022-10-16T06:42:22;3.88;;;1.02;;
62058;SDS011;48017;51.064;7.014;2022-10-16T06:44:47;1.83;;;1.00;;
62058;SDS011;48017;51.064;7.014;2022-10-16T06:47:13;1.58;;;1.00;;
62058;SDS011;48017;51.064;7.014;2022-10-16T06:49:38;2.47;;;1.23;;
62058;SDS011;48017;51.064;7.014;2022-10-16T06:52:04;1.95;;;1.13;;
62058;SDS011;48017;51.064;7.014;2022-10-16T06:54:29;3.92;;;1.30;;
62058;SDS011;48017;51.064;7.014;2022-10-16T06:56:55;1.83;;;1.13;;
62058;SDS011;48017;51.064;7.014;2022-10-16T06:59:21;5.40;;;1.00;;
62058;SDS011;48017;51.064;7.014;2022-10-16T07:01:46;2.10;;;1.00;;
62058;SDS011;48017;51.064;7.014;2022-10-16T07:04:12;1.40;;;1.08;;
62058;SDS011;48017;51.064;7.014;2022-10-16T07:06:37;1.40;;;0.98;;
62058;SDS011;48017;51.064;7.014;2022-10-16T07:09:03;1.60;;;1.08;;
62058;SDS011;48017;51.064;7.014;2022-10-16T07:11:31;1.80;;;1.20;;
62058;SDS011;48017;51.064;7.014;2022-10-16T07:14:01;2.33;;;1.20;;
62058;SDS011;48017;51.064;7.014;2022-10-16T07:16:27;2.38;;;1.15;;
62058;SDS011;48017;51.064;7.014;2022-10-16T07:18:55;2.50;;;1.15;;
62058;SDS011;48017;51.064;7.014;2022-10-16T07:21:26;1.50;;;0.90;;
62058;SDS011;48017;51.064;7.014;2022-10-16T07:24:01;2.40;;;1.40;;
62058;SDS011;48017;51.064;7.014;2022-10-16T07:26:28;2.13;;;1.20;;
62058;SDS011;48017;51.064;7.014;2022-10-16T07:28:55;4.18;;;1.05;;
62058;SDS011;48017;51.064;7.014;2022-10-16T07:31:23;1.88;;;1.10;;
62058;SDS011;48017;51.064;7.014;2022-10-16T07:33:49;1.60;;;1.00;;
62058;SDS011;48017;51.064;7.014;2022-10-16T07:36:17;1.67;;;1.13;;
62058;SDS011;48017;51.064;7.014;2022-10-16T07:38:43;1.52;;;1.05;;
62058;SDS011;48017;51.064;7.014;2022-10-16T07:41:10;1.88;;;1.00;;
62058;SDS011;48017;51.064;7.014;2022-10-16T07:43:37;1.65;;;1.00;;
62058;SDS011;48017;51.064;7.014;2022-10-16T07:46:03;1.98;;;1.23;;
62058;SDS011;48017;51.064;7.014;2022-10-16T07:48:30;2.00;;;1.10;;
62058;SDS011;48017;51.064;7.014;2022-10-16T07:51:00;1.88;;;1.02;;
62058;SDS011;48017;51.064;7.014;2022-10-16T07:53:27;1.77;;;1.10;;
62058;SDS011;48017;51.064;7.014;2022-10-16T07:55:59;2.20;;;1.15;;
62058;SDS011;48017;51.064;7.014;2022-10-16T07:58:26;2.42;;;1.48;;
62058;SDS011;48017;51.064;7.014;2022-10-16T08:00:52;1.90;;;0.90;;
62058;SDS011;48017;51.064;7.014;2022-10-16T08:03:18;1.50;;;0.90;;
62058;SDS011;48017;51.064;7.014;2022-10-16T08:05:43;1.30;;;0.80;;
62058;SDS011;48017;51.064;7.014;2022-10-16T08:08:11;1.55;;;1.08;;
62058;SDS011;48017;51.064;7.014;2022-10-16T08:10:38;1.50;;;1.00;;
62058;SDS011;48017;51.064;7.014;2022-10-16T08:13:04;1.75;;;0.80;;
62058;SDS011;48017;51.064;7.014;2022-10-16T08:15:29;1.55;;;0.90;;
62058;SDS011;48017;51.064;7.014;2022-10-16T08:17:56;2.28;;;0.90;;
62058;SDS011;48017;51.064;7.014;2022-10-16T08:20:26;1.42;;;0.85;;
62058;SDS011;48017;51.064;7.014;2022-10-16T08:22:52;1.48;;;0.75;;
62058;SDS011;48017;51.064;7.014;2022-10-16T08:25:19;1.65;;;0.80;;
62058;SDS011;48017;51.064;7.014;2022-10-16T08:27:45;1.33;;;0.63;;
62058;SDS011;48017;51.064;7.014;2022-10-16T08:30:11;2.45;;;0.80;;
62058;SDS011;48017;51.064;7.014;2022-10-16T08:32:36;2.45;;;0.70;;
62058;SDS011;48017;51.064;7.014;2022-10-16T08:35:02;2.38;;;0.70;;
62058;SDS011;48017;51.064;7.014;2022-10-16T08:37:31;2.22;;;0.50;;
62058;SDS011;48017;51.064;7.014;2022-10-16T08:39:57;1.02;;;0.50;;
62058;SDS011;48017;51.064;7.014;2022-10-16T08:42:27;1.50;;;0.57;;
62058;SDS011;48017;51.064;7.014;2022-10-16T08:45:12;0.75;;;0.50;;
62058;SDS011;48017;51.064;7.014;2022-10-16T08:50:24;0.82;;;0.43;;
62058;SDS011;48017;51.064;7.014;2022-10-16T08:52:53;1.67;;;0.60;;
62058;SDS011;48017;51.064;7.014;2022-10-16T08:56:04;1.85;;;0.60;;
62058;SDS011;48017;51.064;7.014;2022-10-16T08:58:13;0.90;;;0.50;;
62058;SDS011;48017;51.064;7.014;2022-10-16T09:00:40;1.80;;;0.60;;
62058;SDS011;48017;51.064;7.014;2022-10-16T09:05:49;1.38;;;0.50;;
62058;SDS011;48017;51.064;7.014;2022-10-16T09:08:32;2.17;;;0.57;;
62058;SDS011;48017;51.064;7.014;2022-10-16T09:11:10;1.35;;;0.52;;
62058;SDS011;48017;51.064;7.014;2022-10-16T09:16:27;1.70;;;0.60;;
62058;SDS011;48017;51.064;7.014;2022-10-16T09:19:16;0.93;;;0.43;;
62058;SDS011;48017;51.064;7.014;2022-10-16T09:21:45;1.45;;;0.65;;
62058;SDS011;48017;51.064;7.014;2022-10-16T09:24:14;2.20;;;0.40;;
62058;SDS011;48017;51.064;7.014;2022-10-16T09:26:44;1.02;;;0.40;;
62058;SDS011;48017;51.064;7.014;2022-10-16T09:29:14;0.50;;;0.40;;
62058;SDS011;48017;51.064;7.014;2022-10-16T09:31:41;1.20;;;0.47;;
62058;SDS011;48017;51.064;7.014;2022-10-16T09:34:11;1.35;;;0.40;;
62058;SDS011;48017;51.064;7.014;2022-10-16T09:36:55;0.95;;;0.35;;
62058;SDS011;48017;51.064;7.014;2022-10-16T09:39:24;1.00;;;0.40;;
62058;SDS011;48017;51.064;7.014;2022-10-16T09:41:49;1.05;;;0.35;;
62058;SDS011;48017;51.064;7.014;2022-10-16T09:44:19;0.73;;;0.30;;
62058;SDS011;48017;51.064;7.014;2022-10-16T09:47:01;0.95;;;0.30;;
62058;SDS011;48017;51.064;7.014;2022-10-16T09:49:56;1.35;;;0.50;;
62058;SDS011;48017;51.064;7.014;2022-10-16T09:52:27;0.70;;;0.40;;
62058;SDS011;48017;51.064;7.014;2022-10-16T09:54:54;2.58;;;0.70;;
62058;SDS011;48017;51.064;7.014;2022-10-16T09:59:47;3.03;;;0.75;;
62058;SDS011;48017;51.064;7.014;2022-10-16T10:04:42;1.45;;;0.50;;
62058;SDS011;48017;51.064;7.014;2022-10-16T10:07:24;0.80;;;0.30;;
62058;SDS011;48017;51.064;7.014;2022-10-16T10:09:52;0.75;;;0.20;;
62058;SDS011;48017;51.064;7.014;2022-10-16T10:12:21;0.20;;;0.20;;
62058;SDS011;48017;51.064;7.014;2022-10-16T10:14:57;2.35;;;0.20;;
62058;SDS011;48017;51.064;7.014;2022-10-16T10:17:29;0.73;;;0.32;;
62058;SDS011;48017;51.064;7.014;2022-10-16T10:19:55;0.98;;;0.40;;
62058;SDS011;48017;51.064;7.014;2022-10-16T10:27:38;0.32;;;0.20;;
62058;SDS011;48017;51.064;7.014;2022-10-16T10:35:32;2.47;;;0.63;;
62058;SDS011;48017;51.064;7.014;2022-10-16T10:40:52;0.40;;;0.20;;
62058;SDS011;48017;51.064;7.014;2022-10-16T10:46:36;2.17;;;0.50;;
62058;SDS011;48017;51.064;7.014;2022-10-16T10:54:47;0.57;;;0.30;;
62058;SDS011;48017;51.064;7.014;2022-10-16T11:02:59;1.77;;;0.50;;
62058;SDS011;48017;51.064;7.014;2022-10-16T11:10:59;1.48;;;0.30;;
62058;SDS011;48017;51.064;7.014;2022-10-16T11:13:30;0.90;;;0.30;;
62058;SDS011;48017;51.064;7.014;2022-10-16T11:16:00;1.50;;;0.40;;
62058;SDS011;48017;51.064;7.014;2022-10-16T11:21:04;2.33;;;0.28;;
62058;SDS011;48017;51.064;7.014;2022-10-16T11:23:43;1.40;;;0.30;;
62058;SDS011;48017;51.064;7.014;2022-10-16T11:26:14;0.93;;;0.38;;
62058;SDS011;48017;51.064;7.014;2022-10-16T11:28:51;1.92;;;0.40;;
62058;SDS011;48017;51.064;7.014;2022-10-16T11:31:40;0.98;;;0.38;;
62058;SDS011;48017;51.064;7.014;2022-10-16T11:34:32;1.85;;;0.30;;
62058;SDS011;48017;51.064;7.014;2022-10-16T11:39:41;0.90;;;0.30;;
62058;SDS011;48017;51.064;7.014;2022-10-16T11:42:30;0.65;;;0.22;;
62058;SDS011;48017;51.064;7.014;2022-10-16T11:45:02;1.63;;;0.30;;
62058;SDS011;48017;51.064;7.014;2022-10-16T11:47:44;0.65;;;0.30;;
62058;SDS011;48017;51.064;7.014;2022-10-16T11:53:13;0.98;;;0.30;;
62058;SDS011;48017;51.064;7.014;2022-10-16T11:55:48;1.05;;;0.47;;
62058;SDS011;48017;51.064;7.014;2022-10-16T11:58:20;0.90;;;0.32;;
62058;SDS011;48017;51.064;7.014;2022-10-16T12:01:00;0.40;;;0.20;;
62058;SDS011;48017;51.064;7.014;2022-10-16T12:03:50;0.77;;;0.28;;
62058;SDS011;48017;51.064;7.014;2022-10-16T12:06:46;0.30;;;0.10;;
62058;SDS011;48017;51.064;7.014;2022-10-16T12:09:17;0.50;;;0.20;;
62058;SDS011;48017;51.064;7.014;2022-10-16T12:11:47;1.92;;;0.30;;
62058;SDS011;48017;51.064;7.014;2022-10-16T12:16:50;1.83;;;0.30;;
62058;SDS011;48017;51.064;7.014;2022-10-16T12:19:20;1.25;;;0.47;;
62058;SDS011;48017;51.064;7.014;2022-10-16T12:21:46;1.08;;;0.40;;
62058;SDS011;48017;51.064;7.014;2022-10-16T12:27:00;3.25;;;1.02;;
62058;SDS011;48017;51.064;7.014;2022-10-16T12:29:40;12.10;;;3.63;;
62058;SDS011;48017;51.064;7.014;2022-10-16T12:32:27;2.28;;;0.50;;
62058;SDS011;48017;51.064;7.014;2022-10-16T12:34:55;0.85;;;0.32;;
62058;SDS011;48017;51.064;7.014;2022-10-16T12:42:50;1.10;;;0.30;;
62058;SDS011;48017;51.064;7.014;2022-10-16T12:45:32;1.58;;;0.47;;
62058;SDS011;48017;51.064;7.014;2022-10-16T12:47:59;2.33;;;0.45;;
62058;SDS011;48017;51.064;7.014;2022-10-16T12:52:52;0.70;;;0.20;;
62058;SDS011;48017;51.064;7.014;2022-10-16T12:55:19;2.20;;;0.98;;
62058;SDS011;48017;51.064;7.014;2022-10-16T13:03:37;2.40;;;0.40;;
62058;SDS011;48017;51.064;7.014;2022-10-16T13:06:14;3.33;;;0.63;;
62058;SDS011;48017;51.064;7.014;2022-10-16T13:08:58;1.15;;;0.30;;
62058;SDS011;48017;51.064;7.014;2022-10-16T13:17:25;0.70;;;0.30;;
62058;SDS011;48017;51.064;7.014;2022-10-16T13:20:00;1.55;;;0.30;;
62058;SDS011;48017;51.064;7.014;2022-10-16T13:27:56;3.90;;;1.50;;
62058;SDS011;48017;51.064;7.014;2022-10-16T13:30:27;4.43;;;1.67;;
62058;SDS011;48017;51.064;7.014;2022-10-16T13:33:03;2.30;;;0.88;;
62058;SDS011;48017;51.064;7.014;2022-10-16T13:35:33;0.68;;;0.35;;
62058;SDS011;48017;51.064;7.014;2022-10-16T13:38:20;1.08;;;0.30;;
62058;SDS011;48017;51.064;7.014;2022-10-16T13:43:26;2.70;;;0.60;;
62058;SDS011;48017;51.064;7.014;2022-10-16T13:45:57;1.40;;;0.50;;
62058;SDS011;48017;51.064;7.014;2022-10-16T13:48:27;1.83;;;0.38;;
62058;SDS011;48017;51.064;7.014;2022-10-16T13:53:30;0.98;;;0.40;;
62058;SDS011;48017;51.064;7.014;2022-10-16T13:55:57;1.05;;;0.40;;
62058;SDS011;48017;51.064;7.014;2022-10-16T13:58:22;1.70;;;0.30;;
62058;SDS011;48017;51.064;7.014;2022-10-16T14:01:02;1.45;;;0.40;;
62058;SDS011;48017;51.064;7.014;2022-10-16T14:03:33;0.98;;;0.40;;
62058;SDS011;48017;51.064;7.014;2022-10-16T14:06:01;1.70;;;0.77;;
62058;SDS011;48017;51.064;7.014;2022-10-16T14:08:29;0.50;;;0.43;;
62058;SDS011;48017;51.064;7.014;2022-10-16T14:10:56;1.10;;;0.50;;
62058;SDS011;48017;51.064;7.014;2022-10-16T14:15:59;2.65;;;0.52;;
62058;SDS011;48017;51.064;7.014;2022-10-16T14:18:30;0.70;;;0.25;;
62058;SDS011;48017;51.064;7.014;2022-10-16T14:21:02;0.43;;;0.20;;
62058;SDS011;48017;51.064;7.014;2022-10-16T14:23:29;0.50;;;0.30;;
62058;SDS011;48017;51.064;7.014;2022-10-16T14:26:11;0.70;;;0.30;;
62058;SDS011;48017;51.064;7.014;2022-10-16T14:28:39;0.68;;;0.40;;
62058;SDS011;48017;51.064;7.014;2022-10-16T14:33:49;0.57;;;0.38;;
62058;SDS011;48017;51.064;7.014;2022-10-16T14:36:15;2.78;;;0.43;;
62058;SDS011;48017;51.064;7.014;2022-10-16T14:38:59;0.98;;;0.50;;
62058;SDS011;48017;51.064;7.014;2022-10-16T14:41:29;0.85;;;0.50;;
62058;SDS011;48017;51.064;7.014;2022-10-16T14:44:02;1.25;;;0.50;;
62058;SDS011;48017;51.064;7.014;2022-10-16T14:46:35;0.85;;;0.47;;
62058;SDS011;48017;51.064;7.014;2022-10-16T14:49:13;0.88;;;0.47;;
62058;SDS011;48017;51.064;7.014;2022-10-16T14:51:43;2.38;;;0.40;;
62058;SDS011;48017;51.064;7.014;2022-10-16T14:54:10;1.90;;;0.68;;
62058;SDS011;48017;51.064;7.014;2022-10-16T14:56:45;1.70;;;0.60;;
62058;SDS011;48017;51.064;7.014;2022-10-16T14:59:19;0.70;;;0.40;;
62058;SDS011;48017;51.064;7.014;2022-10-16T15:01:50;1.70;;;0.63;;
62058;SDS011;48017;51.064;7.014;2022-10-16T15:04:16;3.65;;;1.45;;
62058;SDS011;48017;51.064;7.014;2022-10-16T15:06:41;1.13;;;0.60;;
62058;SDS011;48017;51.064;7.014;2022-10-16T15:09:07;1.20;;;0.57;;
62058;SDS011;48017;51.064;7.014;2022-10-16T15:11:32;2.15;;;0.80;;
62058;SDS011;48017;51.064;7.014;2022-10-16T15:13:58;1.13;;;0.60;;
62058;SDS011;48017;51.064;7.014;2022-10-16T15:16:24;1.85;;;0.70;;
62058;SDS011;48017;51.064;7.014;2022-10-16T15:18:49;1.25;;;0.50;;
62058;SDS011;48017;51.064;7.014;2022-10-16T15:21:20;0.75;;;0.40;;
62058;SDS011;48017;51.064;7.014;2022-10-16T15:23:54;0.95;;;0.40;;
62058;SDS011;48017;51.064;7.014;2022-10-16T15:26:21;1.02;;;0.50;;
62058;SDS011;48017;51.064;7.014;2022-10-16T15:28:50;1.00;;;0.50;;
62058;SDS011;48017;51.064;7.014;2022-10-16T15:31:16;1.02;;;0.50;;
62058;SDS011;48017;51.064;7.014;2022-10-16T15:33:41;1.30;;;0.50;;
62058;SDS011;48017;51.064;7.014;2022-10-16T15:36:07;0.70;;;0.47;;
62058;SDS011;48017;51.064;7.014;2022-10-16T15:38:32;2.15;;;0.77;;
62058;SDS011;48017;51.064;7.014;2022-10-16T15:40:58;1.77;;;0.60;;
62058;SDS011;48017;51.064;7.014;2022-10-16T15:43:23;1.83;;;0.63;;
62058;SDS011;48017;51.064;7.014;2022-10-16T15:45:58;2.05;;;0.55;;
62058;SDS011;48017;51.064;7.014;2022-10-16T15:48:23;1.08;;;0.60;;
62058;SDS011;48017;51.064;7.014;2022-10-16T15:50:48;3.65;;;0.80;;
62058;SDS011;48017;51.064;7.014;2022-10-16T15:53:14;1.13;;;0.40;;
62058;SDS011;48017;51.064;7.014;2022-10-16T15:55:39;1.63;;;0.60;;
62058;SDS011;48017;51.064;7.014;2022-10-16T15:58:04;0.80;;;0.45;;
62058;SDS011;48017;51.064;7.014;2022-10-16T16:00:30;2.70;;;0.70;;
62058;SDS011;48017;51.064;7.014;2022-10-16T16:02:56;1.50;;;0.60;;
62058;SDS011;48017;51.064;7.014;2022-10-16T16:05:21;1.00;;;0.60;;
62058;SDS011;48017;51.064;7.014;2022-10-16T16:07:48;2.55;;;0.60;;
62058;SDS011;48017;51.064;7.014;2022-10-16T16:10:13;2.28;;;0.47;;
62058;SDS011;48017;51.064;7.014;2022-10-16T16:12:39;0.90;;;0.50;;
62058;SDS011;48017;51.064;7.014;2022-10-16T16:15:05;1.95;;;0.70;;
62058;SDS011;48017;51.064;7.014;2022-10-16T16:17:32;1.33;;;0.50;;
62058;SDS011;48017;51.064;7.014;2022-10-16T16:19:58;3.42;;;0.50;;
62058;SDS011;48017;51.064;7.014;2022-10-16T16:22:24;1.33;;;0.55;;
62058;SDS011;48017;51.064;7.014;2022-10-16T16:24:49;1.48;;;0.60;;
62058;SDS011;48017;51.064;7.014;2022-10-16T16:27:15;1.25;;;0.60;;
62058;SDS011;48017;51.064;7.014;2022-10-16T16:29:40;1.10;;;0.60;;
62058;SDS011;48017;51.064;7.014;2022-10-16T16:32:06;2.08;;;0.70;;
62058;SDS011;48017;51.064;7.014;2022-10-16T16:34:32;1.15;;;0.60;;
62058;SDS011;48017;51.064;7.014;2022-10-16T16:36:57;1.95;;;0.80;;
62058;SDS011;48017;51.064;7.014;2022-10-16T16:39:23;2.53;;;0.60;;
62058;SDS011;48017;51.064;7.014;2022-10-16T16:41:48;2.00;;;0.93;;
62058;SDS011;48017;51.064;7.014;2022-10-16T16:44:14;1.63;;;0.70;;
62058;SDS011;48017;51.064;7.014;2022-10-16T16:46:41;2.13;;;1.00;;
62058;SDS011;48017;51.064;7.014;2022-10-16T16:49:09;2.75;;;1.02;;
62058;SDS011;48017;51.064;7.014;2022-10-16T16:54:01;1.65;;;0.90;;
62058;SDS011;48017;51.064;7.014;2022-10-16T16:56:26;1.60;;;0.82;;
62058;SDS011;48017;51.064;7.014;2022-10-16T16:58:53;1.48;;;0.82;;